Time;durP1;ratioP1;P1;durP2;ratioP2;P2;SDS_P1;SDS_P2;PMS_P1;PMS_P2;Temp;Humidity;BMP_temperature;BMP_pressure;BME280_temperature;BME280_humidity;BME280_pressure;Samples;Min_cycle;Max_cycle;Signal;HPM_P1;HPM_P2
2022/07/12 00:01:08;;;;;;;2.97;2.23;;;15.20;99.90;;;;;;5033743;28;20269;-85
2022/07/12 00:03:34;;;;;;;3.83;2.53;;;15.10;99.90;;;;;;5034416;28;20206;-85
2022/07/12 00:06:01;;;;;;;2.53;2.33;;;15.00;99.90;;;;;;5034889;28;20266;-85
2022/07/12 00:08:27;;;;;;;2.70;2.50;;;14.90;99.90;;;;;;5033810;28;20750;-85
2022/07/12 00:10:53;;;;;;;2.77;2.20;;;14.90;99.90;;;;;;5032638;28;20587;-86
2022/07/12 00:13:18;;;;;;;4.23;2.53;;;15.00;99.90;;;;;;5034107;28;20197;-85
2022/07/12 00:15:44;;;;;;;2.90;2.40;;;14.80;99.90;;;;;;5035029;28;20643;-85
2022/07/12 00:18:11;;;;;;;2.80;2.60;;;14.70;99.90;;;;;;5034704;28;20178;-85
2022/07/12 00:20:37;;;;;;;2.67;2.47;;;14.70;99.90;;;;;;5033483;28;20194;-85
2022/07/12 00:23:04;;;;;;;2.73;2.20;;;14.70;99.90;;;;;;5031876;28;20445;-85
2022/07/12 00:25:30;;;;;;;2.40;2.20;;;14.60;99.90;;;;;;5032980;28;20264;-85
2022/07/12 00:27:56;;;;;;;2.37;2.27;;;14.70;99.90;;;;;;5032487;28;20178;-85
2022/07/12 00:30:22;;;;;;;3.27;2.50;;;14.70;99.90;;;;;;5031848;28;20182;-85
2022/07/12 00:32:48;;;;;;;3.10;2.50;;;14.70;99.90;;;;;;5031963;28;20177;-85
2022/07/12 00:35:15;;;;;;;3.97;2.40;;;14.70;99.90;;;;;;5032657;28;20296;-85
2022/07/12 00:37:41;;;;;;;2.73;2.53;;;14.80;99.90;;;;;;5031972;28;20175;-85
2022/07/12 00:40:08;;;;;;;3.00;2.70;;;14.60;99.90;;;;;;5032046;28;20264;-85
2022/07/12 00:42:35;;;;;;;2.57;2.47;;;14.60;99.90;;;;;;5031930;28;20222;-85
2022/07/12 00:45:02;;;;;;;3.53;3.33;;;14.60;99.90;;;;;;5032672;28;20200;-85
2022/07/12 00:47:36;;;;;;;2.97;2.73;;;14.50;99.90;;;;;;5031864;28;20262;-85
2022/07/12 00:50:05;;;;;;;4.87;2.60;;;14.50;99.90;;;;;;5031733;28;20174;-85
2022/07/12 00:52:31;;;;;;;2.80;2.50;;;14.50;99.90;;;;;;5032182;28;20174;-85
2022/07/12 00:54:56;;;;;;;3.10;2.60;;;14.40;99.90;;;;;;5033041;28;20212;-85
2022/07/12 00:57:23;;;;;;;2.70;2.50;;;14.30;99.90;;;;;;5032067;28;20177;-85
2022/07/12 00:59:49;;;;;;;5.73;2.70;;;14.50;99.90;;;;;;5032185;28;20197;-85
2022/07/12 01:02:15;;;;;;;3.60;2.73;;;14.60;99.90;;;;;;5031922;28;20190;-84
2022/07/12 01:04:43;;;;;;;2.77;2.57;;;14.40;99.90;;;;;;5032008;28;20661;-85
2022/07/12 01:07:09;;;;;;;4.33;3.40;;;14.30;99.90;;;;;;5031906;28;20248;-84
2022/07/12 01:09:35;;;;;;;3.63;3.37;;;14.30;99.90;;;;;;5031762;28;20185;-85
2022/07/12 01:12:01;;;;;;;3.63;3.10;;;14.40;99.90;;;;;;5031546;28;20174;-85
2022/07/12 01:14:27;;;;;;;3.13;2.87;;;14.40;99.90;;;;;;5031260;28;20233;-85
2022/07/12 01:16:53;;;;;;;3.57;3.27;;;14.50;99.90;;;;;;5032911;28;20183;-85
2022/07/12 01:19:21;;;;;;;4.63;2.67;;;14.40;99.90;;;;;;5031722;28;20177;-85
2022/07/12 01:21:50;;;;;;;2.87;2.67;;;14.40;99.90;;;;;;5031985;28;20176;-86
2022/07/12 01:24:19;;;;;;;2.80;2.60;;;14.60;99.90;;;;;;5038619;28;20292;-85
2022/07/12 01:26:47;;;;;;;2.73;2.53;;;14.30;99.90;;;;;;5040826;28;20589;-85
2022/07/12 01:29:14;;;;;;;2.13;2.03;;;14.20;99.90;;;;;;5040581;28;20220;-86
2022/07/12 01:31:40;;;;;;;2.97;2.70;;;14.20;99.90;;;;;;5040894;28;20246;-85
2022/07/12 01:34:06;;;;;;;2.70;2.50;;;14.20;99.90;;;;;;5041088;28;20217;-85
2022/07/12 01:36:33;;;;;;;2.83;2.50;;;14.10;99.90;;;;;;5041278;28;20174;-85
2022/07/12 01:38:59;;;;;;;3.27;2.67;;;14.00;99.90;;;;;;5041405;28;20217;-84
2022/07/12 01:41:25;;;;;;;2.90;2.70;;;14.00;99.90;;;;;;5040108;28;20174;-86
2022/07/12 01:43:52;;;;;;;3.03;2.77;;;14.10;99.90;;;;;;5040222;28;20197;-86
2022/07/12 01:46:18;;;;;;;2.97;2.77;;;14.10;99.90;;;;;;5041044;28;20348;-87
2022/07/12 01:48:44;;;;;;;3.10;2.80;;;14.20;99.90;;;;;;5041316;28;20685;-85
2022/07/12 01:51:10;;;;;;;2.80;2.60;;;14.10;99.90;;;;;;5040664;28;20181;-85
2022/07/12 01:53:36;;;;;;;2.97;2.67;;;14.10;99.90;;;;;;5041073;28;20206;-85
2022/07/12 01:56:03;;;;;;;3.17;2.87;;;14.20;99.90;;;;;;5041804;28;20297;-86
2022/07/12 01:58:30;;;;;;;3.07;2.77;;;14.20;99.90;;;;;;5041305;28;20885;-84
2022/07/12 02:00:56;;;;;;;3.00;2.80;;;14.30;99.90;;;;;;5039478;28;20550;-83
2022/07/12 02:03:22;;;;;;;2.60;2.40;;;14.10;99.90;;;;;;5039628;28;20207;-83
2022/07/12 02:05:48;;;;;;;2.93;2.73;;;14.10;99.90;;;;;;5039421;28;20552;-83
2022/07/12 02:08:14;;;;;;;2.57;2.37;;;14.00;99.90;;;;;;5039023;28;20182;-83
2022/07/12 02:10:41;;;;;;;2.33;2.13;;;14.10;99.90;;;;;;5039579;28;20232;-83
2022/07/12 02:13:07;;;;;;;2.50;2.40;;;14.20;99.90;;;;;;5038998;28;20243;-83
2022/07/12 02:15:33;;;;;;;2.63;2.27;;;14.00;99.90;;;;;;5039966;28;20251;-83
2022/07/12 02:17:58;;;;;;;4.37;2.47;;;13.90;99.90;;;;;;5040004;28;20178;-83
2022/07/12 02:20:24;;;;;;;2.50;2.30;;;13.90;99.90;;;;;;5037628;28;20233;-83
2022/07/12 02:22:50;;;;;;;3.27;2.83;;;13.90;99.90;;;;;;5034130;28;20254;-83
2022/07/12 02:25:16;;;;;;;2.97;2.77;;;13.80;99.90;;;;;;5034988;28;20597;-83
2022/07/12 02:27:43;;;;;;;3.50;3.20;;;13.60;99.90;;;;;;5034134;28;20186;-83
2022/07/12 02:30:10;;;;;;;3.43;3.10;;;13.60;99.90;;;;;;5034207;28;20641;-83
2022/07/12 02:32:37;;;;;;;3.50;3.00;;;13.70;99.90;;;;;;5033211;28;20203;-83
2022/07/12 02:35:06;;;;;;;4.23;2.70;;;13.70;99.90;;;;;;5034000;28;20263;-83
2022/07/12 02:37:32;;;;;;;6.00;3.07;;;13.60;99.90;;;;;;5034467;28;20170;-83
2022/07/12 02:42:43;;;;;;;2.93;2.73;;;13.60;99.90;;;;;;5034989;28;20165;-83
2022/07/12 02:45:09;;;;;;;3.33;3.03;;;13.60;99.90;;;;;;5033753;28;20174;-83
2022/07/12 02:47:39;;;;;;;4.80;3.03;;;13.50;99.90;;;;;;5033767;28;20261;-83
2022/07/12 02:50:06;;;;;;;3.10;2.90;;;13.50;99.90;;;;;;5033508;28;20205;-83
2022/07/12 02:52:32;;;;;;;2.80;2.60;;;13.50;99.90;;;;;;5033130;28;20607;-83
2022/07/12 02:54:58;;;;;;;3.10;2.80;;;13.60;99.90;;;;;;5033404;28;20205;-83
2022/07/12 02:57:24;;;;;;;3.00;2.80;;;13.60;99.90;;;;;;5034078;28;20181;-83
2022/07/12 02:59:49;;;;;;;2.80;2.60;;;13.60;99.90;;;;;;5033240;28;20177;-83
2022/07/12 03:02:15;;;;;;;3.40;3.10;;;13.60;99.90;;;;;;5032877;28;20205;-82
2022/07/12 03:04:41;;;;;;;3.77;3.00;;;13.40;99.90;;;;;;5032948;28;20197;-83
2022/07/12 03:07:06;;;;;;;3.60;3.30;;;13.30;99.90;;;;;;5033847;28;20189;-83
2022/07/12 03:09:32;;;;;;;4.80;3.50;;;13.30;99.90;;;;;;5034931;28;20189;-83
2022/07/12 03:11:57;;;;;;;4.33;3.60;;;13.50;99.90;;;;;;5032731;28;20218;-83
2022/07/12 03:14:23;;;;;;;3.67;3.37;;;13.40;99.90;;;;;;5032612;28;20369;-83
2022/07/12 03:16:49;;;;;;;4.10;3.57;;;13.40;99.90;;;;;;5035000;28;20232;-82
2022/07/12 03:19:15;;;;;;;6.37;4.10;;;13.60;99.90;;;;;;5032740;28;20174;-83
2022/07/12 03:21:42;;;;;;;5.63;4.20;;;13.50;99.90;;;;;;5031935;28;20266;-83
2022/07/12 03:24:08;;;;;;;5.10;4.63;;;13.40;99.90;;;;;;5038088;28;20194;-83
2022/07/12 03:26:33;;;;;;;7.80;5.80;;;13.50;99.90;;;;;;5041956;28;20231;-83
2022/07/12 03:29:02;;;;;;;6.10;5.50;;;13.60;99.90;;;;;;5041611;28;20179;-82
2022/07/12 03:31:28;;;;;;;7.37;6.57;;;13.40;99.90;;;;;;5041469;28;20650;-83
2022/07/12 03:33:53;;;;;;;6.40;5.80;;;13.40;99.90;;;;;;5041987;28;20198;-83
2022/07/12 03:36:19;;;;;;;7.57;6.00;;;13.50;99.90;;;;;;5041464;28;20201;-83
2022/07/12 03:38:45;;;;;;;6.40;5.47;;;13.40;99.90;;;;;;5042467;28;20169;-83
2022/07/12 03:41:10;;;;;;;5.60;5.10;;;13.30;99.90;;;;;;5042113;28;20185;-83
2022/07/12 03:43:36;;;;;;;6.47;5.70;;;13.40;99.90;;;;;;5043762;28;20193;-83
2022/07/12 03:46:01;;;;;;;8.57;5.87;;;13.40;99.90;;;;;;5038003;28;20765;-83
2022/07/12 03:48:27;;;;;;;9.40;5.87;;;13.40;99.90;;;;;;5032969;28;20268;-82
2022/07/12 03:50:53;;;;;;;7.07;6.37;;;13.40;99.90;;;;;;5032793;28;20323;-83
2022/07/12 03:53:19;;;;;;;7.63;6.03;;;13.30;99.90;;;;;;5032216;28;20207;-83
2022/07/12 03:55:44;;;;;;;6.03;5.27;;;13.40;99.90;;;;;;5032602;28;20213;-82
2022/07/12 03:58:10;;;;;;;6.43;5.30;;;13.50;99.90;;;;;;5033877;28;20174;-83
2022/07/12 04:00:36;;;;;;;6.23;5.63;;;13.50;99.90;;;;;;5032731;28;20537;-83
2022/07/12 04:03:02;;;;;;;8.07;6.07;;;13.40;99.90;;;;;;5031800;28;20227;-83
2022/07/12 04:05:27;;;;;;;6.50;5.90;;;13.50;99.90;;;;;;5032823;28;20246;-83
2022/07/12 04:07:53;;;;;;;6.23;5.30;;;13.50;99.90;;;;;;5031842;28;20191;-83
2022/07/12 04:10:20;;;;;;;7.30;5.00;;;13.50;99.90;;;;;;5032244;28;20655;-83
2022/07/12 04:12:46;;;;;;;4.90;4.50;;;13.60;99.90;;;;;;5031817;28;20558;-82
2022/07/12 04:15:12;;;;;;;10.50;5.40;;;13.60;99.90;;;;;;5032275;28;20696;-82
2022/07/12 04:17:37;;;;;;;7.20;4.30;;;13.60;99.90;;;;;;5032209;28;20188;-82
2022/07/12 04:20:04;;;;;;;7.17;4.73;;;13.70;99.90;;;;;;5032008;28;20273;-82
2022/07/12 04:22:30;;;;;;;6.33;4.47;;;13.70;99.90;;;;;;5030976;28;20171;-83
2022/07/12 04:24:56;;;;;;;5.50;4.63;;;13.80;99.90;;;;;;5031440;28;20672;-83
2022/07/12 04:27:22;;;;;;;5.67;3.97;;;13.80;99.90;;;;;;5032626;28;20185;-82
2022/07/12 04:29:48;;;;;;;16.00;4.40;;;13.90;99.90;;;;;;5032699;28;20257;-83
2022/07/12 04:32:13;;;;;;;14.67;6.60;;;13.90;99.90;;;;;;5031775;28;20189;-83
2022/07/12 04:34:39;;;;;;;8.93;7.00;;;13.90;99.90;;;;;;5031250;28;20573;-83
2022/07/12 04:37:05;;;;;;;9.00;6.93;;;13.90;99.90;;;;;;5032073;28;20217;-83
2022/07/12 04:39:30;;;;;;;9.33;6.43;;;14.00;99.90;;;;;;5031132;28;20304;-83
2022/07/12 04:41:56;;;;;;;9.03;6.73;;;14.10;99.90;;;;;;5031399;28;20182;-83
2022/07/12 04:44:21;;;;;;;7.50;5.30;;;14.30;99.90;;;;;;5031473;28;20198;-83
2022/07/12 04:46:47;;;;;;;5.00;4.50;;;14.60;99.90;;;;;;5032513;28;20269;-83
2022/07/12 04:49:13;;;;;;;4.20;3.90;;;14.90;99.90;;;;;;5032145;28;20185;-83
2022/07/12 04:51:39;;;;;;;4.10;3.80;;;15.00;99.90;;;;;;5031542;28;20189;-83
2022/07/12 04:54:04;;;;;;;4.30;3.50;;;15.20;99.90;;;;;;5030949;28;20207;-83
2022/07/12 04:56:30;;;;;;;4.53;3.47;;;15.40;99.90;;;;;;5031898;28;20178;-83
2022/07/12 04:58:56;;;;;;;4.50;3.90;;;15.70;99.90;;;;;;5031172;28;20205;-83
2022/07/12 05:01:22;;;;;;;4.20;3.20;;;15.90;99.90;;;;;;5030956;28;20200;-83
2022/07/12 05:03:48;;;;;;;4.50;2.90;;;16.20;99.90;;;;;;5031017;28;20198;-83
2022/07/12 05:06:13;;;;;;;3.77;3.20;;;16.10;99.90;;;;;;5033259;28;20276;-83
2022/07/12 05:08:39;;;;;;;4.63;3.70;;;16.20;99.90;;;;;;5031048;28;20236;-83
2022/07/12 05:11:05;;;;;;;4.23;3.83;;;16.20;99.90;;;;;;5031744;28;20177;-83
2022/07/12 05:13:31;;;;;;;4.10;3.43;;;16.00;99.90;;;;;;5031140;28;20204;-83
2022/07/12 05:15:56;;;;;;;4.30;3.90;;;16.10;99.90;;;;;;5031853;28;20458;-83
2022/07/12 05:18:22;;;;;;;4.57;4.13;;;16.10;99.90;;;;;;5033829;28;20837;-84
2022/07/12 05:20:48;;;;;;;5.17;4.53;;;16.00;99.90;;;;;;5030699;28;20228;-83
2022/07/12 05:23:14;;;;;;;6.83;4.27;;;16.20;99.90;;;;;;5031659;28;20202;-84
2022/07/12 05:25:39;;;;;;;4.30;3.90;;;16.10;99.90;;;;;;5032305;28;20216;-83
2022/07/12 05:28:05;;;;;;;3.93;3.30;;;16.30;99.90;;;;;;5032194;28;20186;-83
2022/07/12 05:30:31;;;;;;;6.22;3.60;;;16.70;99.90;;;;;;5031579;28;20277;-83
2022/07/12 05:32:57;;;;;;;3.50;3.10;;;17.10;99.90;;;;;;5031837;28;20318;-84
2022/07/12 05:35:22;;;;;;;3.90;3.50;;;16.80;99.90;;;;;;5032339;28;20213;-84
2022/07/12 05:37:48;;;;;;;3.80;3.50;;;16.60;99.90;;;;;;5032131;28;20324;-83
2022/07/12 05:40:14;;;;;;;5.38;3.70;;;16.70;99.90;;;;;;5031915;28;20181;-84
2022/07/12 05:42:39;;;;;;;5.05;3.50;;;16.90;99.90;;;;;;5031309;28;20204;-83
2022/07/12 05:45:06;;;;;;;3.80;3.50;;;17.10;99.90;;;;;;5032655;28;20183;-83
2022/07/12 05:47:31;;;;;;;7.47;3.53;;;17.20;99.90;;;;;;5032516;28;20182;-83
2022/07/12 05:49:57;;;;;;;12.02;4.05;;;17.30;99.90;;;;;;5032776;28;20253;-83
2022/07/12 05:55:07;;;;;;;5.05;3.05;;;17.60;99.90;;;;;;5034221;28;20248;-84
2022/07/12 05:57:32;;;;;;;5.28;2.97;;;17.70;99.90;;;;;;5033900;28;20174;-83
2022/07/12 05:59:58;;;;;;;5.65;3.42;;;17.90;99.90;;;;;;5032551;28;20585;-84
2022/07/12 06:02:24;;;;;;;3.33;3.03;;;18.30;99.90;;;;;;5032649;28;20189;-84
2022/07/12 06:04:50;;;;;;;3.30;3.10;;;18.90;99.90;;;;;;5034110;28;20209;-84
2022/07/12 06:07:16;;;;;;;3.80;3.50;;;18.90;99.90;;;;;;5033194;28;20178;-84
2022/07/12 06:09:42;;;;;;;3.28;3.03;;;19.20;99.90;;;;;;5036004;28;20546;-85
2022/07/12 06:12:07;;;;;;;5.47;3.05;;;19.40;99.90;;;;;;5036181;28;20178;-84
2022/07/12 06:14:33;;;;;;;3.63;2.67;;;19.70;99.90;;;;;;5036602;28;20201;-85
2022/07/12 06:16:59;;;;;;;4.25;3.10;;;20.10;99.90;;;;;;5037266;28;20193;-84
2022/07/12 06:19:26;;;;;;;5.28;3.47;;;20.30;99.90;;;;;;5038470;28;20542;-84
2022/07/12 06:21:52;;;;;;;3.35;2.85;;;20.20;99.90;;;;;;5034837;28;20575;-85
2022/07/12 06:24:18;;;;;;;3.65;2.92;;;20.60;99.90;;;;;;5033807;28;20288;-85
2022/07/12 06:26:43;;;;;;;3.53;3.22;;;20.50;99.90;;;;;;5034978;28;20178;-85
2022/07/12 06:29:09;;;;;;;3.47;3.15;;;20.50;99.90;;;;;;5033715;28;20166;-84
2022/07/12 06:31:35;;;;;;;3.20;2.90;;;20.70;99.90;;;;;;5033904;28;20189;-82
2022/07/12 06:34:00;;;;;;;6.30;2.92;;;21.00;99.90;;;;;;5034357;28;20293;-82
2022/07/12 06:36:26;;;;;;;3.00;2.80;;;21.20;99.90;;;;;;5035279;28;20209;-83
2022/07/12 06:38:52;;;;;;;3.20;3.00;;;21.30;99.90;;;;;;5035740;28;20260;-83
2022/07/12 06:41:17;;;;;;;3.35;3.05;;;21.30;99.90;;;;;;5034384;28;20237;-82
2022/07/12 06:43:43;;;;;;;3.00;2.70;;;21.30;99.90;;;;;;5034906;28;20254;-82
2022/07/12 06:46:08;;;;;;;3.63;2.83;;;21.90;99.90;;;;;;5034826;28;20182;-83
2022/07/12 06:48:34;;;;;;;2.78;2.58;;;21.70;99.90;;;;;;5035143;28;20178;-82
2022/07/12 06:51:00;;;;;;;3.15;2.85;;;22.20;99.90;;;;;;5034403;28;20174;-83
2022/07/12 06:53:26;;;;;;;3.03;2.80;;;22.20;99.90;;;;;;5034009;28;20311;-82
2022/07/12 06:55:51;;;;;;;2.72;2.50;;;22.50;99.90;;;;;;5033745;28;20237;-83
2022/07/12 06:58:17;;;;;;;2.90;2.70;;;22.90;99.90;;;;;;5033858;28;20218;-82
2022/07/12 07:00:43;;;;;;;2.75;2.35;;;22.30;99.90;;;;;;5034143;28;20174;-83
2022/07/12 07:03:08;;;;;;;6.47;2.53;;;22.70;99.90;;;;;;5033541;28;20315;-85
2022/07/12 07:05:36;;;;;;;2.97;2.78;;;23.10;99.90;;;;;;5034985;28;20189;-84
2022/07/12 07:08:02;;;;;;;5.72;3.30;;;22.20;99.90;;;;;;5034163;28;20609;-81
2022/07/12 07:10:28;;;;;;;8.68;2.70;;;22.50;99.90;;;;;;5036312;28;20582;-82
2022/07/12 07:12:53;;;;;;;5.72;2.58;;;23.30;99.90;;;;;;5034089;28;20201;-83
2022/07/12 07:15:19;;;;;;;4.00;2.28;;;23.50;99.90;;;;;;5033694;28;20229;-82
2022/07/12 07:17:45;;;;;;;3.28;2.20;;;23.60;99.90;;;;;;5034784;28;20166;-82
2022/07/12 07:20:11;;;;;;;2.60;2.40;;;23.20;99.90;;;;;;5033063;28;20180;-83
2022/07/12 07:22:38;;;;;;;3.70;2.30;;;23.50;99.90;;;;;;5033097;28;20185;-82
2022/07/12 07:25:05;;;;;;;3.00;2.10;;;22.90;99.90;;;;;;5038818;28;20190;-82
2022/07/12 07:27:30;;;;;;;2.42;2.17;;;23.40;99.90;;;;;;5036340;28;20221;-85
2022/07/12 07:32:40;;;;;;;2.42;2.15;;;23.70;99.90;;;;;;5037132;28;20215;-84
2022/07/12 07:35:06;;;;;;;2.45;2.25;;;23.30;99.90;;;;;;5036028;28;20198;-83
2022/07/12 07:37:33;;;;;;;4.30;2.42;;;23.80;99.90;;;;;;5034905;28;20166;-84
2022/07/12 07:39:59;;;;;;;2.88;2.13;;;24.40;99.90;;;;;;5031116;28;20158;-84
2022/07/12 07:42:24;;;;;;;2.40;2.20;;;24.30;99.90;;;;;;5032489;28;20177;-83
2022/07/12 07:44:50;;;;;;;1.92;1.80;;;24.10;99.90;;;;;;5034511;28;20194;-82
2022/07/12 07:47:15;;;;;;;2.83;2.25;;;24.30;99.90;;;;;;5035707;28;20802;-83
2022/07/12 07:49:41;;;;;;;2.88;2.30;;;24.20;99.90;;;;;;5036675;28;20176;-81
2022/07/12 07:52:07;;;;;;;3.13;2.28;;;24.50;99.90;;;;;;5032666;28;20204;-84
2022/07/12 07:54:33;;;;;;;4.47;1.85;;;24.10;99.90;;;;;;5032235;28;20670;-84
2022/07/12 07:56:59;;;;;;;3.72;2.10;;;24.90;99.90;;;;;;5034869;28;20173;-83
2022/07/12 07:59:24;;;;;;;2.30;2.10;;;25.10;99.90;;;;;;5033558;28;20189;-82
2022/07/12 08:01:52;;;;;;;2.47;2.17;;;25.70;99.90;;;;;;5032273;28;20181;-83
2022/07/12 08:04:19;;;;;;;2.15;1.83;;;25.70;99.90;;;;;;5034741;28;20194;-84
2022/07/12 08:06:46;;;;;;;1.92;1.83;;;25.80;99.90;;;;;;5036428;28;20714;-84
2022/07/12 08:09:12;;;;;;;1.77;1.67;;;25.50;99.90;;;;;;5036400;28;20177;-84
2022/07/12 08:11:38;;;;;;;3.00;1.80;;;25.20;99.90;;;;;;5034226;28;20174;-83
2022/07/12 08:14:05;;;;;;;1.48;1.48;;;24.90;99.90;;;;;;5034387;28;20194;-83
2022/07/12 08:16:31;;;;;;;5.30;1.70;;;26.10;99.90;;;;;;5034417;28;20217;-83
2022/07/12 08:18:57;;;;;;;2.10;1.63;;;25.70;99.90;;;;;;5034047;28;20580;-84
2022/07/12 08:21:23;;;;;;;2.47;1.70;;;25.40;99.90;;;;;;5034899;28;20174;-83
2022/07/12 08:23:50;;;;;;;3.70;1.55;;;25.40;99.90;;;;;;5034303;28;20198;-83
2022/07/12 08:26:15;;;;;;;4.00;1.45;;;25.50;99.90;;;;;;5034499;28;20174;-83
2022/07/12 08:28:41;;;;;;;2.13;1.67;;;25.70;99.90;;;;;;5033937;28;20184;-84
2022/07/12 08:31:07;;;;;;;1.40;1.30;;;25.10;99.90;;;;;;5032961;28;20635;-83
2022/07/12 08:33:32;;;;;;;4.32;1.65;;;25.90;99.90;;;;;;5033927;28;20197;-81
2022/07/12 08:35:58;;;;;;;1.70;1.60;;;25.50;99.90;;;;;;5034855;28;20206;-81
2022/07/12 08:38:24;;;;;;;2.38;1.40;;;25.70;99.90;;;;;;5035419;28;20251;-81
2022/07/12 08:40:50;;;;;;;1.65;1.23;;;26.00;99.90;;;;;;5035066;28;20253;-81
2022/07/12 08:43:15;;;;;;;3.90;1.70;;;26.10;99.90;;;;;;5034356;28;20737;-81
2022/07/12 08:45:41;;;;;;;2.92;1.70;;;26.00;99.90;;;;;;5035305;28;20174;-81
2022/07/12 08:48:07;;;;;;;2.42;1.30;;;26.00;99.90;;;;;;5035606;28;20174;-81
2022/07/12 08:50:33;;;;;;;1.92;1.00;;;26.50;99.90;;;;;;5035010;28;20664;-81
2022/07/12 08:52:59;;;;;;;0.93;0.93;;;26.60;99.80;;;;;;5034545;28;20292;-81
2022/07/12 08:55:30;;;;;;;5.25;1.20;;;26.90;98.70;;;;;;5035406;28;20193;-82
2022/07/12 08:58:14;;;;;;;1.85;1.00;;;27.00;99.00;;;;;;5035824;28;20176;-81
2022/07/12 09:00:40;;;;;;;1.77;1.02;;;26.50;98.90;;;;;;5034962;28;20531;-81
2022/07/12 09:03:07;;;;;;;2.55;1.10;;;27.00;98.00;;;;;;5033827;28;20205;-81
2022/07/12 09:05:33;;;;;;;1.30;1.08;;;27.30;98.20;;;;;;5034509;28;20170;-81
2022/07/12 09:08:06;;;;;;;1.10;1.00;;;27.40;98.30;;;;;;5035229;28;20174;-82
2022/07/12 09:11:02;;;;;;;1.10;1.10;;;27.40;98.20;;;;;;5035150;28;20177;-82
2022/07/12 09:13:58;;;;;;;0.98;0.98;;;27.70;97.80;;;;;;5031583;28;20202;-82
2022/07/12 09:16:25;;;;;;;2.92;1.20;;;27.80;97.60;;;;;;5022997;28;20251;-82
2022/07/12 09:19:10;;;;;;;1.48;1.13;;;27.90;97.60;;;;;;5035284;28;20177;-82
2022/07/12 09:21:36;;;;;;;2.40;1.00;;;27.50;96.30;;;;;;5035541;28;20260;-83
2022/07/12 09:24:02;;;;;;;1.00;1.00;;;27.70;96.70;;;;;;5033791;28;20279;-83
2022/07/12 09:26:32;;;;;;;1.00;1.00;;;27.70;96.80;;;;;;5034055;28;20265;-82
2022/07/12 09:29:09;;;;;;;1.20;1.20;;;28.10;95.80;;;;;;5033233;28;20177;-81
2022/07/12 09:37:24;;;;;;;0.93;0.73;;;27.90;96.40;;;;;;5036107;28;20161;-82
2022/07/12 09:39:51;;;;;;;0.80;0.80;;;28.80;95.50;;;;;;5034399;28;20177;-79
2022/07/12 09:42:18;;;;;;;1.00;1.00;;;29.00;95.60;;;;;;5033359;28;20174;-80
2022/07/12 09:44:47;;;;;;;3.28;0.80;;;29.00;94.00;;;;;;5038357;28;20694;-82
2022/07/12 09:47:15;;;;;;;1.13;1.00;;;28.80;95.10;;;;;;5039725;28;20647;-82
2022/07/12 09:49:44;;;;;;;2.63;1.30;;;28.70;94.60;;;;;;5040534;28;20166;-81
2022/07/12 09:52:12;;;;;;;0.90;0.90;;;28.90;94.00;;;;;;5038126;28;20178;-80
2022/07/12 09:54:41;;;;;;;0.90;0.90;;;29.00;94.20;;;;;;5037984;28;20267;-80
2022/07/12 09:57:21;;;;;;;4.53;1.05;;;29.60;93.70;;;;;;5041567;28;20277;-81
2022/07/12 09:59:50;;;;;;;1.13;1.10;;;28.60;93.70;;;;;;5041053;28;20174;-80
2022/07/12 10:02:16;;;;;;;1.75;1.10;;;28.20;94.50;;;;;;5038110;28;20190;-80
2022/07/12 10:04:42;;;;;;;2.03;0.98;;;28.70;93.10;;;;;;5040390;28;20194;-81
2022/07/12 10:07:14;;;;;;;0.98;0.98;;;28.50;93.10;;;;;;5040534;28;20178;-82
2022/07/12 10:09:42;;;;;;;0.93;0.93;;;28.70;93.00;;;;;;5042933;28;20183;-82
2022/07/12 10:12:10;;;;;;;1.77;1.00;;;29.10;92.60;;;;;;5039610;28;20257;-80
2022/07/12 10:14:38;;;;;;;3.38;1.00;;;29.30;92.10;;;;;;5038518;28;20198;-81
2022/07/12 10:17:09;;;;;;;2.92;1.05;;;28.90;92.00;;;;;;5041041;28;20184;-82
2022/07/12 10:19:36;;;;;;;1.73;0.88;;;29.40;91.70;;;;;;5044037;28;20178;-81
2022/07/12 10:22:06;;;;;;;0.90;0.90;;;29.40;92.40;;;;;;5044233;28;20196;-81
2022/07/12 10:24:32;;;;;;;2.63;0.80;;;29.90;90.50;;;;;;5041045;28;20208;-82
2022/07/12 10:27:13;;;;;;;2.15;0.90;;;29.50;91.10;;;;;;5038990;28;20174;-80
2022/07/12 10:29:43;;;;;;;1.27;0.80;;;29.10;90.90;;;;;;5042095;28;20174;-83
2022/07/12 10:32:26;;;;;;;4.43;1.00;;;28.80;91.00;;;;;;5043591;28;20166;-82
2022/07/12 10:35:11;;;;;;;0.80;0.73;;;29.80;91.60;;;;;;5038408;28;20740;-78
2022/07/12 10:37:37;;;;;;;4.03;1.00;;;29.90;90.60;;;;;;5042658;28;20182;-82
2022/07/12 10:40:16;;;;;;;1.23;0.90;;;30.00;91.30;;;;;;5041603;28;20200;-82
2022/07/12 10:43:12;;;;;;;0.60;0.60;;;30.30;90.80;;;;;;5039659;28;20418;-81
2022/07/12 10:45:40;;;;;;;1.85;0.88;;;30.40;90.00;;;;;;5036346;28;20557;-82
2022/07/12 10:48:20;;;;;;;1.85;0.90;;;29.70;90.30;;;;;;5036048;28;20174;-82
2022/07/12 10:50:45;;;;;;;2.25;1.08;;;29.70;90.10;;;;;;5035470;28;20176;-81
2022/07/12 10:53:30;;;;;;;1.10;1.10;;;29.10;91.20;;;;;;5034102;28;20190;-81
2022/07/12 10:56:05;;;;;;;1.38;0.88;;;29.30;90.90;;;;;;5037270;28;20201;-81
2022/07/12 10:58:33;;;;;;;7.00;1.17;;;29.50;90.80;;;;;;5035623;28;20645;-82
2022/07/12 11:01:03;;;;;;;2.35;0.90;;;29.70;91.20;;;;;;5038198;28;20181;-84
2022/07/12 11:03:50;;;;;;;0.80;0.80;;;29.80;90.60;;;;;;5036370;28;20194;-83
2022/07/12 11:06:21;;;;;;;2.00;0.88;;;30.10;89.30;;;;;;5041317;28;20223;-83
2022/07/12 11:09:01;;;;;;;1.02;1.02;;;29.80;89.10;;;;;;5037457;28;20198;-82
2022/07/12 11:11:29;;;;;;;0.85;0.80;;;29.70;90.00;;;;;;5039801;28;20185;-82
2022/07/12 11:13:57;;;;;;;1.40;0.73;;;29.20;90.10;;;;;;5034932;28;20812;-84
2022/07/12 11:16:24;;;;;;;2.10;0.60;;;28.80;90.60;;;;;;5035046;28;20217;-82
2022/07/12 11:18:50;;;;;;;0.88;0.88;;;28.90;90.40;;;;;;5035088;28;20181;-83
2022/07/12 11:21:16;;;;;;;1.92;1.00;;;29.50;90.20;;;;;;5035989;28;20174;-83
2022/07/12 11:23:42;;;;;;;1.90;0.70;;;29.40;88.70;;;;;;5036144;28;20561;-83
2022/07/12 11:26:10;;;;;;;2.38;0.70;;;29.30;89.70;;;;;;5036628;28;20170;-83
2022/07/12 11:28:37;;;;;;;0.70;0.70;;;29.40;88.70;;;;;;5036567;28;20178;-82
2022/07/12 11:31:08;;;;;;;1.90;0.70;;;29.60;87.50;;;;;;5035058;28;20174;-82
2022/07/12 11:33:37;;;;;;;1.05;0.80;;;29.80;88.10;;;;;;5036308;28;20202;-84
2022/07/12 11:36:13;;;;;;;0.80;0.80;;;29.80;88.00;;;;;;5035577;28;20558;-83
2022/07/12 11:38:41;;;;;;;0.70;0.70;;;29.80;88.10;;;;;;5035940;28;20174;-81
2022/07/12 11:41:07;;;;;;;0.60;0.60;;;29.50;86.50;;;;;;5036570;28;20542;-81
2022/07/12 11:43:35;;;;;;;6.28;0.95;;;29.80;86.70;;;;;;5035263;28;20732;-81
2022/07/12 11:46:01;;;;;;;5.05;0.90;;;29.70;86.50;;;;;;5035356;28;20706;-80
2022/07/12 11:48:27;;;;;;;3.90;0.80;;;29.10;86.80;;;;;;5035721;28;20174;-81
2022/07/12 11:50:54;;;;;;;0.70;0.70;;;29.30;85.60;;;;;;5034455;28;20174;-81
2022/07/12 11:53:26;;;;;;;1.00;0.80;;;29.30;84.10;;;;;;5051416;28;20256;-80
2022/07/12 11:55:58;;;;;;;1.55;0.60;;;29.30;85.30;;;;;;5034992;28;20292;-80
2022/07/12 11:58:25;;;;;;;0.70;0.70;;;29.60;84.00;;;;;;5035282;28;20257;-80
2022/07/12 12:00:52;;;;;;;0.80;0.80;;;29.10;83.20;;;;;;5034478;28;20170;-80
2022/07/12 12:03:19;;;;;;;0.60;0.60;;;29.10;85.70;;;;;;5034798;28;20521;-80
2022/07/12 12:05:51;;;;;;;0.68;0.60;;;29.30;84.70;;;;;;5034345;28;20265;-80
2022/07/12 12:08:17;;;;;;;2.70;0.60;;;29.60;83.50;;;;;;5036219;28;20297;-81
2022/07/12 12:11:02;;;;;;;0.60;0.60;;;29.70;82.30;;;;;;5035229;28;20185;-80
2022/07/12 12:13:29;;;;;;;3.38;0.82;;;29.60;83.00;;;;;;5033774;28;20536;-82
2022/07/12 12:15:59;;;;;;;6.28;0.77;;;29.00;83.00;;;;;;5037132;28;20252;-82
2022/07/12 12:18:35;;;;;;;2.00;0.60;;;29.60;83.40;;;;;;5095477;22;20255;-83
2022/07/12 12:21:04;;;;;;;0.60;0.60;;;29.40;83.30;;;;;;5075199;28;20161;-82
2022/07/12 12:23:31;;;;;;;2.65;0.57;;;29.40;83.90;;;;;;5075273;28;20251;-85
2022/07/12 12:26:08;;;;;;;0.80;0.60;;;29.30;83.60;;;;;;5098279;22;20213;-83
2022/07/12 12:28:48;;;;;;;0.70;0.70;;;29.50;84.40;;;;;;5077098;28;20191;-82
2022/07/12 12:31:16;;;;;;;1.42;0.95;;;29.80;84.40;;;;;;5077706;28;20176;-83
2022/07/12 12:33:48;;;;;;;0.65;0.65;;;29.40;85.20;;;;;;5077187;28;20196;-83
2022/07/12 12:36:22;;;;;;;1.05;0.90;;;29.10;86.20;;;;;;5077189;28;20200;-82
2022/07/12 12:38:52;;;;;;;0.70;0.70;;;29.20;85.80;;;;;;5078359;28;20172;-82
2022/07/12 12:41:22;;;;;;;2.28;0.80;;;29.50;86.30;;;;;;5075726;28;20211;-82
2022/07/12 12:43:48;;;;;;;4.28;0.77;;;29.40;84.40;;;;;;5076379;28;20193;-82
2022/07/12 12:46:14;;;;;;;1.95;0.80;;;28.70;86.90;;;;;;5075618;28;20311;-82
2022/07/12 12:48:46;;;;;;;0.70;0.70;;;29.10;86.00;;;;;;5076430;28;20226;-82
2022/07/12 12:51:12;;;;;;;2.10;0.65;;;29.30;84.80;;;;;;5076013;28;20177;-82
2022/07/12 12:53:39;;;;;;;2.45;0.70;;;29.40;84.20;;;;;;5077201;28;20193;-83
2022/07/12 12:56:11;;;;;;;0.60;0.60;;;29.50;82.30;;;;;;5076494;28;20200;-82
2022/07/12 12:58:38;;;;;;;1.40;0.77;;;29.00;82.70;;;;;;5077000;28;20179;-82
2022/07/12 13:01:04;;;;;;;0.57;0.52;;;28.90;82.40;;;;;;5076943;28;20169;-82